Time;durP1;ratioP1;P1;durP2;ratioP2;P2;SDS_P1;SDS_P2;PMS_P1;PMS_P2;Temp;Humidity;BMP_temperature;BMP_pressure;BME280_temperature;BME280_humidity;BME280_pressure;Samples;Min_cycle;Max_cycle;Signal;HPM_P1;HPM_P2
2021/09/24 00:00:25;;;;;;;7.40;4.70;;;;;;;11.45;92.62;96460.59;4965808;28;20027;-77
2021/09/24 00:02:51;;;;;;;7.97;4.40;;;;;;;11.49;92.79;96464.56;4992348;28;20046;-77
2021/09/24 00:05:17;;;;;;;9.53;4.10;;;;;;;11.48;92.56;96472.63;4975874;28;20031;-77
2021/09/24 00:07:43;;;;;;;7.17;3.70;;;;;;;11.50;92.82;96475.91;4980949;28;20080;-77
2021/09/24 00:10:10;;;;;;;5.60;3.17;;;;;;;11.54;92.90;96478.09;4976581;28;20043;-76
2021/09/24 00:12:37;;;;;;;7.60;4.43;;;;;;;11.44;93.45;96472.13;4974019;28;20415;-76
2021/09/24 00:15:04;;;;;;;10.77;4.00;;;;;;;11.44;93.34;96468.66;4960994;28;20113;-74
2021/09/24 00:17:30;;;;;;;9.20;4.17;;;;;;;11.44;93.68;96466.84;4971395;28;20400;-77
2021/09/24 00:19:55;;;;;;;7.73;4.17;;;;;;;11.43;93.93;96465.19;4984649;28;20109;-77
2021/09/24 00:22:22;;;;;;;7.97;3.93;;;;;;;11.51;93.66;96467.03;4986183;28;20066;-75
2021/09/24 00:24:48;;;;;;;7.07;4.00;;;;;;;11.44;93.99;96461.59;4975705;28;20105;-77
2021/09/24 00:27:13;;;;;;;6.63;3.83;;;;;;;11.42;94.28;96458.28;4966006;28;20130;-76
2021/09/24 00:29:39;;;;;;;6.83;3.93;;;;;;;11.41;94.44;96466.34;4954660;28;20029;-75
2021/09/24 00:32:05;;;;;;;8.60;4.30;;;;;;;11.37;94.59;96460.56;4963976;28;20110;-77
2021/09/24 00:34:31;;;;;;;6.93;3.70;;;;;;;11.31;95.06;96458.56;4965411;28;20047;-75
2021/09/24 00:36:57;;;;;;;8.80;4.60;;;;;;;11.26;95.29;96453.75;4956538;28;20047;-77
2021/09/24 00:39:23;;;;;;;7.90;3.90;;;;;;;11.23;95.81;96450.63;4961685;28;20038;-77
2021/09/24 00:41:48;;;;;;;7.00;3.97;;;;;;;11.19;95.58;96451.94;4959128;28;20038;-77
2021/09/24 00:44:14;;;;;;;9.40;3.60;;;;;;;11.28;95.52;96450.97;4960561;28;20037;-76
2021/09/24 00:46:40;;;;;;;7.27;4.00;;;;;;;11.24;96.58;96455.75;4965921;28;20535;-76
2021/09/24 00:49:06;;;;;;;6.43;4.10;;;;;;;11.27;96.08;96446.72;4964603;28;20045;-76
2021/09/24 00:51:31;;;;;;;6.23;3.80;;;;;;;11.19;97.17;96441.41;4970514;28;20047;-76
2021/09/24 00:53:57;;;;;;;9.97;4.50;;;;;;;11.22;96.84;96439.28;4947886;28;20504;-77
2021/09/24 00:56:23;;;;;;;9.60;4.00;;;;;;;11.18;97.15;96431.84;4973594;28;20100;-76
2021/09/24 00:58:49;;;;;;;8.93;4.57;;;;;;;11.15;97.53;96432.16;4954784;28;20515;-76
2021/09/24 01:01:15;;;;;;;6.60;3.87;;;;;;;11.17;98.10;96427.59;4960249;28;20043;-76
2021/09/24 01:03:41;;;;;;;6.77;4.20;;;;;;;11.20;97.89;96419.34;4963778;28;20062;-76
2021/09/24 01:06:06;;;;;;;7.70;4.50;;;;;;;11.11;98.47;96422.94;4969898;28;20062;-76
2021/09/24 01:08:32;;;;;;;10.03;4.67;;;;;;;11.11;97.83;96426.41;4965422;28;20042;-77
2021/09/24 01:10:59;;;;;;;8.90;3.90;;;;;;;11.02;98.77;96425.53;4980718;28;20109;-77
2021/09/24 01:13:25;;;;;;;5.93;3.77;;;;;;;11.04;98.73;96420.94;4960286;28;20042;-76
2021/09/24 01:15:51;;;;;;;7.73;4.33;;;;;;;11.08;98.50;96418.81;4963920;28;20031;-74
2021/09/24 01:18:17;;;;;;;9.70;4.10;;;;;;;11.01;99.27;96415.16;4958395;28;20574;-73
2021/09/24 01:20:43;;;;;;;7.33;4.27;;;;;;;11.08;99.06;96414.38;4968930;28;20023;-77
2021/09/24 01:23:09;;;;;;;7.00;4.33;;;;;;;11.12;98.87;96421.94;4981294;28;20030;-77
2021/09/24 01:25:35;;;;;;;9.23;4.77;;;;;;;11.13;98.97;96426.22;4975895;28;20050;-77
2021/09/24 01:28:01;;;;;;;8.63;4.30;;;;;;;11.06;99.15;96424.22;4984649;28;20058;-76
2021/09/24 01:30:27;;;;;;;8.67;4.67;;;;;;;11.08;99.72;96424.06;4981542;28;20043;-76
2021/09/24 01:32:52;;;;;;;7.87;5.10;;;;;;;11.04;99.91;96422.75;4985314;28;20109;-76
2021/09/24 01:35:18;;;;;;;7.47;4.43;;;;;;;10.92;100.00;96422.19;4978954;28;20027;-77
2021/09/24 01:37:45;;;;;;;6.73;4.40;;;;;;;10.96;99.91;96420.88;4975909;28;20054;-76
2021/09/24 01:40:16;;;;;;;8.30;4.77;;;;;;;10.99;99.96;96420.56;4986150;28;20085;-76
2021/09/24 01:42:43;;;;;;;6.67;4.27;;;;;;;10.92;100.00;96432.72;4966029;28;20030;-74
2021/09/24 01:45:09;;;;;;;7.93;4.90;;;;;;;10.87;100.00;96426.28;4992462;28;20054;-76
2021/09/24 01:47:35;;;;;;;7.07;4.63;;;;;;;10.88;100.00;96420.03;4975332;28;20049;-76
2021/09/24 01:50:01;;;;;;;7.03;4.07;;;;;;;10.87;100.00;96415.75;4974411;28;20031;-76
2021/09/24 01:52:28;;;;;;;12.17;5.10;;;;;;;10.82;100.00;96418.84;4975115;28;20038;-77
2021/09/24 01:54:54;;;;;;;7.60;4.43;;;;;;;10.84;100.00;96422.16;4975950;28;20042;-76
2021/09/24 01:57:20;;;;;;;8.97;4.67;;;;;;;10.88;100.00;96420.84;4957714;28;20043;-74
2021/09/24 01:59:46;;;;;;;8.43;4.33;;;;;;;10.84;100.00;96411.63;4973947;28;20571;-76
2021/09/24 02:02:11;;;;;;;7.83;4.83;;;;;;;10.80;100.00;96418.19;4967539;28;20047;-75
2021/09/24 02:04:37;;;;;;;8.27;4.73;;;;;;;10.83;100.00;96412.59;4967497;28;20569;-76
2021/09/24 02:07:03;;;;;;;7.03;4.67;;;;;;;10.84;100.00;96422.16;4974500;28;20031;-76
2021/09/24 02:09:29;;;;;;;7.33;4.70;;;;;;;10.84;100.00;96419.53;4952817;28;20054;-75
2021/09/24 02:11:54;;;;;;;8.87;5.00;;;;;;;10.79;100.00;96414.72;4995790;28;20035;-76
2021/09/24 02:14:20;;;;;;;8.20;4.90;;;;;;;10.76;100.00;96419.47;4984297;28;20128;-76
2021/09/24 02:16:46;;;;;;;7.53;4.53;;;;;;;10.78;100.00;96414.88;4967432;28;20065;-76
2021/09/24 02:19:12;;;;;;;7.60;4.20;;;;;;;10.75;100.00;96418.63;4983751;28;20029;-76
2021/09/24 02:21:37;;;;;;;8.43;5.00;;;;;;;10.77;100.00;96423.75;4984538;28;20031;-75
2021/09/24 02:24:03;;;;;;;8.93;5.00;;;;;;;10.71;100.00;96427.00;4981888;28;20035;-76
2021/09/24 02:26:29;;;;;;;7.40;4.50;;;;;;;10.68;100.00;96427.31;4984897;28;20047;-76
2021/09/24 02:28:55;;;;;;;29.23;7.20;;;;;;;10.65;100.00;96428.44;4982141;28;20027;-76
2021/09/24 02:31:21;;;;;;;8.33;4.87;;;;;;;10.64;100.00;96429.44;4960658;28;20039;-76
2021/09/24 02:33:46;;;;;;;6.30;4.20;;;;;;;10.61;100.00;96432.38;4975072;28;20109;-76
2021/09/24 02:36:12;;;;;;;6.83;4.50;;;;;;;10.60;100.00;96428.09;4966664;28;20380;-75
2021/09/24 02:38:38;;;;;;;8.83;4.87;;;;;;;10.53;100.00;96430.53;4982022;28;20039;-75
2021/09/24 02:41:04;;;;;;;8.73;4.90;;;;;;;10.46;100.00;96429.50;4970360;28;20081;-76
2021/09/24 02:43:31;;;;;;;8.07;4.63;;;;;;;10.46;100.00;96431.25;4969315;28;20035;-75
2021/09/24 02:45:57;;;;;;;8.73;4.70;;;;;;;10.50;100.00;96425.56;4985020;28;20045;-76
2021/09/24 02:48:23;;;;;;;11.93;5.70;;;;;;;10.48;100.00;96437.22;4960866;28;20125;-76
2021/09/24 02:50:49;;;;;;;8.40;5.40;;;;;;;10.54;100.00;96434.78;4950451;28;20113;-76
2021/09/24 02:53:14;;;;;;;10.43;5.90;;;;;;;10.61;100.00;96429.75;4986107;28;20055;-74
2021/09/24 02:55:40;;;;;;;8.20;5.27;;;;;;;10.61;100.00;96433.19;4972295;28;20045;-76
2021/09/24 02:58:06;;;;;;;8.37;5.20;;;;;;;10.59;100.00;96431.69;4962755;28;20093;-74
2021/09/24 03:00:31;;;;;;;10.50;5.10;;;;;;;10.59;100.00;96421.97;4978672;28;20548;-75
2021/09/24 03:02:57;;;;;;;7.77;5.03;;;;;;;10.61;100.00;96425.31;4969695;28;20018;-75
2021/09/24 03:05:23;;;;;;;9.67;5.93;;;;;;;10.55;100.00;96418.03;4976985;28;20034;-75
2021/09/24 03:07:50;;;;;;;8.83;5.83;;;;;;;10.60;100.00;96426.28;4984407;28;20045;-75
2021/09/24 03:10:16;;;;;;;8.57;4.87;;;;;;;10.55;100.00;96420.66;4973641;28;20034;-75
2021/09/24 03:12:41;;;;;;;9.47;5.33;;;;;;;10.57;100.00;96423.16;4994523;28;20543;-75
2021/09/24 03:15:10;;;;;;;7.73;5.30;;;;;;;10.53;100.00;96427.88;4982732;28;20081;-75
2021/09/24 03:17:36;;;;;;;9.73;6.00;;;;;;;10.49;100.00;96423.91;4987995;28;20437;-75
2021/09/24 03:20:04;;;;;;;9.10;5.40;;;;;;;10.41;100.00;96425.66;4986913;28;20033;-75
2021/09/24 03:22:30;;;;;;;9.37;5.10;;;;;;;10.26;100.00;96430.63;4970665;28;20031;-75
2021/09/24 03:24:57;;;;;;;8.47;5.03;;;;;;;10.23;100.00;96428.25;4980228;28;20396;-75
2021/09/24 03:27:23;;;;;;;11.43;6.03;;;;;;;10.23;100.00;96430.88;4978970;28;20022;-75
2021/09/24 03:29:48;;;;;;;9.47;5.10;;;;;;;10.19;100.00;96426.94;4987233;28;20070;-75
2021/09/24 03:32:18;;;;;;;9.67;5.77;;;;;;;10.16;100.00;96420.19;4980264;28;20030;-75
2021/09/24 03:34:48;;;;;;;11.20;5.90;;;;;;;10.11;100.00;96425.88;4975920;28;20052;-75
2021/09/24 03:37:14;;;;;;;8.93;5.67;;;;;;;10.13;100.00;96421.31;4979479;28;20658;-75
2021/09/24 03:39:41;;;;;;;9.83;5.37;;;;;;;10.09;100.00;96422.59;4991006;28;20513;-75
2021/09/24 03:42:07;;;;;;;8.10;5.30;;;;;;;10.03;100.00;96423.19;4974870;28;20050;-75
2021/09/24 03:44:32;;;;;;;11.43;5.80;;;;;;;9.98;100.00;96424.63;4991191;28;20032;-74
2021/09/24 03:46:58;;;;;;;8.53;5.63;;;;;;;10.02;100.00;96421.53;4976614;28;20518;-75
2021/09/24 03:49:24;;;;;;;8.90;5.87;;;;;;;9.90;100.00;96423.56;4966507;28;20030;-75
2021/09/24 03:51:50;;;;;;;8.33;5.30;;;;;;;9.91;100.00;96424.41;4974053;28;20040;-75
2021/09/24 03:54:17;;;;;;;9.77;6.07;;;;;;;9.94;100.00;96425.91;4996918;28;20050;-75
2021/09/24 03:56:43;;;;;;;8.20;5.23;;;;;;;9.97;100.00;96425.59;4980593;28;20039;-75
2021/09/24 03:59:12;;;;;;;9.70;5.87;;;;;;;9.95;100.00;96428.38;4963755;28;20035;-75
2021/09/24 04:01:39;;;;;;;13.93;6.20;;;;;;;9.99;100.00;96427.09;4981332;28;20207;-74
2021/09/24 04:04:05;;;;;;;9.07;5.87;;;;;;;10.03;100.00;96423.19;4970829;28;20022;-75
2021/09/24 04:06:31;;;;;;;8.77;6.00;;;;;;;10.02;100.00;96426.78;4978101;28;20034;-75
2021/09/24 04:08:57;;;;;;;8.77;5.53;;;;;;;10.09;100.00;96425.22;4979176;28;20032;-75
2021/09/24 04:11:23;;;;;;;10.33;6.00;;;;;;;10.14;100.00;96422.13;4980070;28;20030;-75
2021/09/24 04:13:50;;;;;;;9.83;5.43;;;;;;;10.15;100.00;96426.41;4972291;28;20050;-75
2021/09/24 04:16:17;;;;;;;9.17;6.13;;;;;;;10.09;100.00;96417.34;4992951;28;20041;-75
2021/09/24 04:18:43;;;;;;;11.33;6.17;;;;;;;10.09;100.00;96433.09;4973578;28;20030;-75
2021/09/24 04:21:09;;;;;;;8.63;5.77;;;;;;;10.06;100.00;96433.41;5000197;28;20045;-74
2021/09/24 04:23:35;;;;;;;9.30;5.80;;;;;;;10.05;100.00;96431.75;4976744;28;20078;-74
2021/09/24 04:26:01;;;;;;;10.10;6.00;;;;;;;10.06;100.00;96433.41;4990660;28;20038;-75
2021/09/24 04:28:27;;;;;;;8.60;5.80;;;;;;;10.09;100.00;96427.84;4989191;28;20026;-75
2021/09/24 04:30:53;;;;;;;9.23;5.97;;;;;;;10.01;100.00;96429.56;4990733;28;20489;-75
2021/09/24 04:33:19;;;;;;;10.90;5.80;;;;;;;10.01;100.00;96425.13;4975581;28;20038;-75
2021/09/24 04:35:44;;;;;;;9.13;5.80;;;;;;;9.97;100.00;96423.78;4968233;28;20035;-75
2021/09/24 04:38:10;;;;;;;8.70;5.73;;;;;;;9.90;100.00;96420.94;4969330;28;20488;-75
2021/09/24 04:40:36;;;;;;;9.43;5.87;;;;;;;9.96;100.00;96430.03;4973118;28;20046;-75
2021/09/24 04:43:02;;;;;;;12.50;6.80;;;;;;;9.93;100.00;96427.72;4961148;28;20018;-75
2021/09/24 04:45:28;;;;;;;12.20;5.80;;;;;;;9.92;100.00;96423.41;4968737;28;20580;-75
2021/09/24 04:47:54;;;;;;;8.43;6.00;;;;;;;9.94;100.00;96426.72;4961456;28;20027;-75
2021/09/24 04:50:20;;;;;;;9.20;6.17;;;;;;;9.95;100.00;96425.75;4984368;28;20070;-75
2021/09/24 04:52:45;;;;;;;8.77;5.77;;;;;;;9.91;100.00;96430.47;4975035;28;20514;-75
2021/09/24 04:55:11;;;;;;;9.30;5.90;;;;;;;9.96;100.00;96432.66;4985697;28;20097;-75
2021/09/24 04:57:37;;;;;;;9.77;6.30;;;;;;;9.94;100.00;96431.16;4980443;28;20050;-75
2021/09/24 05:00:05;;;;;;;10.17;5.70;;;;;;;9.96;100.00;96426.56;4976668;28;20383;-76
2021/09/24 05:02:31;;;;;;;8.20;5.63;;;;;;;9.97;100.00;96428.22;4978576;28;20030;-76
2021/09/24 05:04:57;;;;;;;9.10;5.93;;;;;;;9.95;100.00;96435.41;4977746;28;20452;-75
2021/09/24 05:07:22;;;;;;;12.53;6.10;;;;;;;9.96;100.00;96437.06;4983560;28;20018;-75
2021/09/24 05:09:48;;;;;;;10.37;5.90;;;;;;;9.98;100.00;96443.00;4972055;28;20483;-75
2021/09/24 05:12:14;;;;;;;10.43;6.23;;;;;;;9.96;100.00;96431.81;4979266;28;20113;-76
2021/09/24 05:14:39;;;;;;;10.87;5.50;;;;;;;9.98;100.00;96450.88;4962305;28;20035;-76
2021/09/24 05:17:05;;;;;;;9.87;6.00;;;;;;;9.97;100.00;96449.25;4977670;28;20404;-75
2021/09/24 05:19:31;;;;;;;8.70;5.87;;;;;;;9.93;100.00;96453.97;4986038;28;20042;-75
2021/09/24 05:21:56;;;;;;;9.77;6.10;;;;;;;9.97;100.00;96457.94;4971458;28;20030;-75
2021/09/24 05:24:22;;;;;;;11.80;6.90;;;;;;;9.98;100.00;96456.97;4978951;28;20122;-76
2021/09/24 05:26:48;;;;;;;10.30;7.20;;;;;;;10.09;100.00;96456.75;4950377;28;20038;-75
2021/09/24 05:29:14;;;;;;;10.97;6.33;;;;;;;10.26;100.00;96456.91;4968801;28;20400;-75
2021/09/24 05:31:39;;;;;;;9.80;6.33;;;;;;;10.40;100.00;96460.81;4985817;28;20038;-75
2021/09/24 05:34:05;;;;;;;9.93;6.20;;;;;;;10.55;100.00;96459.28;4974618;28;20034;-76
2021/09/24 05:36:31;;;;;;;9.23;5.87;;;;;;;10.82;100.00;96458.31;4966600;28;20038;-75
2021/09/24 05:38:57;;;;;;;9.43;5.97;;;;;;;11.11;100.00;96454.53;5004752;28;20027;-75
2021/09/24 05:41:23;;;;;;;9.77;7.00;;;;;;;11.30;98.68;96459.53;4997456;28;20027;-75
2021/09/24 05:43:50;;;;;;;10.67;6.63;;;;;;;11.39;98.61;96461.22;4979792;28;20069;-76
2021/09/24 05:46:19;;;;;;;11.90;6.43;;;;;;;11.58;96.94;96462.78;4993270;28;20106;-76
2021/09/24 05:48:46;;;;;;;9.40;6.03;;;;;;;11.94;95.67;96457.31;4985276;28;20524;-76
2021/09/24 05:51:12;;;;;;;9.00;5.97;;;;;;;11.93;95.16;96459.09;4996611;28;20026;-75
2021/09/24 05:53:38;;;;;;;8.67;5.23;;;;;;;12.10;93.77;96457.31;4983181;28;20444;-76
2021/09/24 05:56:04;;;;;;;8.43;5.60;;;;;;;12.24;93.15;96454.06;4999431;28;20018;-76
2021/09/24 05:58:30;;;;;;;9.07;5.53;;;;;;;12.42;92.55;96461.78;4989961;28;20526;-77
2021/09/24 06:00:56;;;;;;;10.33;5.97;;;;;;;12.65;91.71;96461.13;4982094;28;20027;-76
2021/09/24 06:03:22;;;;;;;10.80;6.03;;;;;;;12.90;89.82;96459.25;4979495;28;20070;-76
2021/09/24 06:05:48;;;;;;;11.70;5.63;;;;;;;12.81;89.41;96452.34;4975505;28;20023;-76
2021/09/24 06:08:13;;;;;;;15.90;5.70;;;;;;;13.22;88.56;96461.00;4976949;28;20382;-76
2021/09/24 06:10:40;;;;;;;8.20;5.30;;;;;;;13.36;87.35;96460.31;4977489;28;20024;-76
2021/09/24 06:13:07;;;;;;;9.40;5.50;;;;;;;13.67;86.14;96456.88;4977046;28;20078;-76
2021/09/24 06:15:33;;;;;;;9.43;6.13;;;;;;;13.69;86.38;96454.91;4996526;28;20035;-76
2021/09/24 06:17:59;;;;;;;7.63;5.37;;;;;;;13.89;85.93;96450.81;4989206;28;20043;-76
2021/09/24 06:20:25;;;;;;;9.17;6.67;;;;;;;14.10;84.39;96452.00;4985929;28;20377;-76
2021/09/24 06:22:51;;;;;;;13.27;7.30;;;;;;;14.10;85.06;96458.13;4973604;28;20042;-76
2021/09/24 06:25:18;;;;;;;8.57;5.70;;;;;;;14.55;82.55;96453.84;4964390;28;20034;-76
2021/09/24 06:27:45;;;;;;;7.53;4.73;;;;;;;14.57;81.31;96458.97;4969955;28;20463;-76
2021/09/24 06:30:14;;;;;;;9.07;5.20;;;;;;;14.92;80.45;96457.47;4950025;28;20031;-76
2021/09/24 06:32:40;;;;;;;7.63;4.63;;;;;;;15.18;79.54;96457.03;4973967;28;20631;-76
2021/09/24 06:35:06;;;;;;;16.43;12.23;;;;;;;15.93;76.25;96471.06;4977247;28;20125;-76
2021/09/24 06:37:37;;;;;;;8.17;5.57;;;;;;;15.74;74.17;96467.19;4944950;28;20050;-76
2021/09/24 06:40:05;;;;;;;8.17;5.20;;;;;;;15.88;74.11;96473.44;4961623;28;20042;-76
2021/09/24 06:42:30;;;;;;;8.17;5.13;;;;;;;15.98;72.16;96466.84;4971383;28;20031;-76
2021/09/24 06:44:57;;;;;;;10.17;4.83;;;;;;;16.24;72.39;96476.91;4995628;28;20389;-76
2021/09/24 06:47:24;;;;;;;6.75;5.05;;;;;;;16.65;70.65;96470.16;4988947;28;20458;-76
2021/09/24 06:49:50;;;;;;;8.85;5.80;;;;;;;16.27;70.89;96481.84;4987970;28;20041;-76
2021/09/24 06:52:16;;;;;;;7.70;5.93;;;;;;;16.52;71.53;96484.13;4990594;28;20035;-76
2021/09/24 06:54:43;;;;;;;7.10;5.13;;;;;;;15.84;73.17;96488.09;4972020;28;20045;-77
2021/09/24 06:57:09;;;;;;;9.93;5.88;;;;;;;16.31;72.21;96484.94;4977145;28;20034;-76
2021/09/24 06:59:35;;;;;;;7.35;5.10;;;;;;;17.06;70.10;96482.75;4984739;28;20026;-76
2021/09/24 07:02:02;;;;;;;7.65;5.57;;;;;;;16.09;73.02;96480.63;4971829;28;20545;-77
2021/09/24 07:04:27;;;;;;;9.95;6.35;;;;;;;15.29;76.34;96488.38;4979129;28;20030;-77
2021/09/24 07:06:53;;;;;;;7.40;5.30;;;;;;;15.53;76.86;96491.78;4979811;28;20026;-76
2021/09/24 07:09:19;;;;;;;10.63;5.88;;;;;;;15.26;79.20;96488.75;4994128;28;20049;-77
2021/09/24 07:11:48;;;;;;;9.55;5.47;;;;;;;15.41;79.21;96495.88;4967891;28;20086;-76
2021/09/24 07:14:15;;;;;;;8.32;5.72;;;;;;;14.92;80.33;96496.38;4955872;28;20039;-76
2021/09/24 07:16:41;;;;;;;8.55;6.30;;;;;;;14.78;81.15;96493.50;4983149;28;20042;-76
2021/09/24 07:19:07;;;;;;;8.98;5.28;;;;;;;14.96;80.94;96497.69;4978771;28;20081;-77
2021/09/24 07:21:33;;;;;;;8.70;6.15;;;;;;;15.03;81.26;96495.94;4979361;28;20038;-76
2021/09/24 07:23:59;;;;;;;8.48;5.63;;;;;;;15.04;81.50;96500.22;4986179;28;20027;-76
2021/09/24 07:26:27;;;;;;;12.88;5.97;;;;;;;14.99;82.90;96505.22;4968597;28;20110;-76
2021/09/24 07:28:56;;;;;;;9.43;6.10;;;;;;;14.83;81.91;96493.81;4977094;28;20031;-77
2021/09/24 07:31:23;;;;;;;8.43;6.03;;;;;;;14.80;83.20;96501.28;4967240;28;20141;-77
2021/09/24 07:33:49;;;;;;;8.53;5.90;;;;;;;14.84;82.17;96500.75;4968004;28;20065;-76
2021/09/24 07:36:16;;;;;;;12.53;5.87;;;;;;;15.20;81.90;96497.41;4969559;28;20062;-77
2021/09/24 07:38:44;;;;;;;9.83;5.87;;;;;;;15.03;82.41;96495.94;4987659;28;20023;-76
2021/09/24 07:41:10;;;;;;;9.27;6.07;;;;;;;15.25;82.84;96494.22;4953453;28;20397;-77
2021/09/24 07:43:35;;;;;;;7.77;5.57;;;;;;;15.76;79.91;96502.25;4982440;28;20061;-76
2021/09/24 07:46:01;;;;;;;9.63;5.32;;;;;;;16.77;75.86;96489.91;4965681;28;20067;-77
2021/09/24 07:48:27;;;;;;;10.20;5.60;;;;;;;16.28;76.84;96495.94;4953833;28;20375;-76
2021/09/24 07:50:52;;;;;;;9.45;5.97;;;;;;;16.41;76.34;96498.72;4958913;28;20039;-76
2021/09/24 07:53:18;;;;;;;9.00;6.13;;;;;;;16.91;73.31;96486.31;4972366;28;20043;-76
2021/09/24 07:55:44;;;;;;;12.73;5.95;;;;;;;16.58;74.51;96491.31;4974468;28;20114;-76
2021/09/24 07:58:10;;;;;;;8.15;5.55;;;;;;;16.28;75.93;96495.94;4976014;28;20069;-76
2021/09/24 08:00:36;;;;;;;8.63;5.32;;;;;;;15.92;77.75;96501.25;4990715;28;20120;-77
2021/09/24 08:03:03;;;;;;;8.65;5.57;;;;;;;15.88;77.79;96502.63;4970744;28;20038;-76
2021/09/24 08:05:31;;;;;;;12.57;6.15;;;;;;;15.69;78.41;96499.56;4950892;28;20039;-77
2021/09/24 08:07:57;;;;;;;9.30;5.78;;;;;;;15.52;79.13;96500.69;4982184;28;20049;-76
2021/09/24 08:10:24;;;;;;;10.07;6.93;;;;;;;15.56;79.23;96502.00;4983929;28;20027;-76
2021/09/24 08:12:51;;;;;;;8.18;6.25;;;;;;;15.51;78.91;96504.38;4960550;28;20100;-76
2021/09/24 08:15:17;;;;;;;7.72;5.90;;;;;;;15.56;78.95;96507.31;4974104;28;20031;-75
2021/09/24 08:17:43;;;;;;;8.73;5.80;;;;;;;15.38;78.93;96505.00;4975853;28;20031;-75
2021/09/24 08:20:09;;;;;;;8.80;5.35;;;;;;;15.70;78.47;96513.63;4977650;28;20023;-76
2021/09/24 08:22:38;;;;;;;9.57;6.00;;;;;;;15.81;77.87;96517.63;4967895;28;20050;-75
2021/09/24 08:25:11;;;;;;;9.18;6.60;;;;;;;16.10;77.51;96512.28;4958755;28;20185;-75
2021/09/24 08:27:37;;;;;;;21.17;6.50;;;;;;;16.37;76.31;96512.56;4961579;28;20035;-75
2021/09/24 08:30:07;;;;;;;9.50;5.68;;;;;;;16.40;75.74;96509.53;4973133;28;20387;-75
2021/09/24 08:32:36;;;;;;;9.30;6.05;;;;;;;17.20;71.38;96506.59;4969175;28;20041;-76
2021/09/24 08:35:04;;;;;;;7.03;5.00;;;;;;;17.87;70.26;96509.63;4975639;28;20042;-75
2021/09/24 08:37:30;;;;;;;8.05;5.75;;;;;;;17.57;69.98;96503.72;4968559;28;20041;-75
2021/09/24 08:39:56;;;;;;;9.88;5.88;;;;;;;17.36;70.33;96504.63;4967388;28;20034;-75
2021/09/24 08:42:21;;;;;;;9.43;5.75;;;;;;;16.82;72.45;96508.72;4973472;28;20503;-76
2021/09/24 08:44:49;;;;;;;8.77;5.63;;;;;;;17.51;70.16;96513.31;4978499;28;20496;-76
2021/09/24 08:47:16;;;;;;;7.82;4.85;;;;;;;17.08;72.63;96513.44;4971444;28;20030;-76
2021/09/24 08:49:43;;;;;;;7.72;5.55;;;;;;;17.24;71.91;96506.19;4961094;28;20034;-75
2021/09/24 08:52:08;;;;;;;7.82;6.03;;;;;;;17.08;71.98;96507.31;4996807;28;20818;-76
2021/09/24 08:54:34;;;;;;;8.45;5.85;;;;;;;16.99;72.25;96498.63;4978283;28;20077;-75
2021/09/24 08:57:00;;;;;;;8.43;6.03;;;;;;;18.19;68.42;96501.97;4970788;28;20121;-75
2021/09/24 08:59:25;;;;;;;9.07;5.82;;;;;;;18.50;66.71;96491.59;4956306;28;20042;-76
2021/09/24 09:01:58;;;;;;;9.45;6.55;;;;;;;18.12;68.14;96502.75;4966442;28;20485;-76
2021/09/24 09:04:42;;;;;;;8.43;5.18;;;;;;;17.61;69.42;96497.81;4973293;28;20048;-76
2021/09/24 09:07:11;;;;;;;7.85;5.38;;;;;;;18.14;69.55;96499.88;4965911;28;20460;-75
2021/09/24 09:09:39;;;;;;;7.53;5.78;;;;;;;18.22;68.84;96502.38;4984455;28;20492;-76
2021/09/24 09:12:17;;;;;;;9.98;5.97;;;;;;;18.18;68.50;96495.00;4971564;28;20450;-76
2021/09/24 09:14:57;;;;;;;8.95;6.00;;;;;;;18.41;68.39;96508.78;4966408;28;20042;-76
2021/09/24 09:17:32;;;;;;;9.15;5.95;;;;;;;17.72;68.82;96503.59;4976797;28;20836;-76
2021/09/24 09:20:17;;;;;;;8.45;6.20;;;;;;;17.86;68.15;96510.66;4961636;28;20026;-77
2021/09/24 09:22:46;;;;;;;9.65;6.15;;;;;;;18.64;65.91;96499.59;4992810;28;20411;-75
2021/09/24 09:25:28;;;;;;;9.73;5.63;;;;;;;19.39;63.92;96500.22;4969654;28;20034;-76
2021/09/24 09:27:56;;;;;;;9.15;5.25;;;;;;;20.87;59.49;96492.19;4978205;28;20030;-76
2021/09/24 09:30:23;;;;;;;9.82;4.93;;;;;;;21.91;56.35;96487.06;4977139;28;20443;-76
2021/09/24 09:33:04;;;;;;;8.88;5.63;;;;;;;22.52;53.75;96481.53;4976754;28;20034;-76
2021/09/24 09:35:37;;;;;;;9.07;4.72;;;;;;;22.44;53.30;96486.41;4969623;28;20055;-75
2021/09/24 09:38:04;;;;;;;11.32;4.65;;;;;;;22.03;54.60;96487.94;4989007;28;20046;-77
2021/09/24 09:40:29;;;;;;;7.13;4.40;;;;;;;22.76;52.94;96479.72;4982261;28;20913;-76
2021/09/24 09:42:57;;;;;;;7.53;4.93;;;;;;;22.76;52.77;96492.31;4981752;28;20034;-76
2021/09/24 09:45:25;;;;;;;9.00;5.38;;;;;;;21.98;52.98;96487.81;4971663;28;20096;-76
2021/09/24 09:47:51;;;;;;;6.55;4.90;;;;;;;21.79;53.77;96495.84;4960486;28;20038;-77
2021/09/24 09:50:24;;;;;;;8.43;5.10;;;;;;;22.09;53.22;96492.38;4994800;28;20257;-76
2021/09/24 09:53:11;;;;;;;10.25;5.15;;;;;;;21.73;54.33;96486.03;4974704;28;20026;-76
2021/09/24 09:55:49;;;;;;;7.90;5.03;;;;;;;22.28;52.50;96486.00;4982183;28;20122;-77
2021/09/24 09:58:15;;;;;;;9.30;4.95;;;;;;;21.45;54.86;96483.84;4965759;28;20066;-76
2021/09/24 10:01:06;;;;;;;7.43;3.78;;;;;;;22.48;53.00;96471.50;4964774;28;20025;-76
2021/09/24 10:03:39;;;;;;;5.80;3.60;;;;;;;23.09;51.52;96480.28;4965411;28;20045;-76
2021/09/24 10:06:24;;;;;;;;;;;;;;;21.98;52.90;96477.09;4957086;28;20042;-77
2021/09/24 10:09:00;;;;;;;6.82;3.67;;;;;;;21.39;54.35;96476.72;4981215;28;19913;-76
2021/09/24 10:11:39;;;;;;;6.55;3.30;;;;;;;20.95;56.22;96479.34;4990125;28;20589;-77
2021/09/24 10:14:09;;;;;;;8.95;4.05;;;;;;;21.89;54.08;96474.69;4971350;28;20027;-76
2021/09/24 10:16:41;;;;;;;5.55;3.20;;;;;;;22.30;51.61;96467.00;4969345;28;20092;-76
2021/09/24 10:19:07;;;;;;;12.50;6.78;;;;;;;23.30;50.46;96463.59;4973362;28;20508;-76
2021/09/24 10:21:33;;;;;;;5.10;3.10;;;;;;;24.41;47.35;96463.47;4984630;28;20927;-77
2021/09/24 10:23:59;;;;;;;5.75;2.50;;;;;;;23.83;47.23;96459.09;4993717;28;20523;-76
2021/09/24 10:26:48;;;;;;;6.18;3.13;;;;;;;23.38;48.30;96459.75;4978525;28;20038;-77
2021/09/24 10:29:23;;;;;;;6.90;2.90;;;;;;;23.71;48.41;96461.84;4987770;28;20039;-76
2021/09/24 10:31:50;;;;;;;5.32;3.13;;;;;;;23.80;47.60;96473.00;4968161;28;20100;-77
2021/09/24 10:34:19;;;;;;;5.03;2.00;;;;;;;24.00;46.92;96465.38;4985394;28;20148;-76
2021/09/24 10:36:49;;;;;;;5.57;2.70;;;;;;;24.22;46.86;96468.22;4992160;28;20035;-77
2021/09/24 10:39:29;;;;;;;4.80;2.50;;;;;;;24.36;47.40;96466.06;4977126;28;20543;-76
2021/09/24 10:42:15;;;;;;;3.42;2.28;;;;;;;24.04;45.33;96463.81;4984323;28;20027;-76
2021/09/24 10:45:07;;;;;;;3.55;2.15;;;;;;;23.79;47.29;96471.38;4978462;28;20038;-77
2021/09/24 10:47:54;;;;;;;4.35;2.53;;;;;;;23.36;47.75;96462.66;4960271;28;20038;-76
2021/09/24 10:50:37;;;;;;;7.10;3.55;;;;;;;23.45;48.07;96460.44;4965468;28;20074;-76
2021/09/24 10:53:17;;;;;;;15.68;8.57;;;;;;;23.75;46.75;96461.13;4967456;28;20041;-77
2021/09/24 10:55:54;;;;;;;11.27;4.57;;;;;;;24.03;45.72;96448.78;4971073;28;20145;-78
2021/09/24 10:58:31;;;;;;;3.38;1.70;;;;;;;23.92;46.20;96450.44;4963592;28;20031;-76
2021/09/24 11:01:04;;;;;;;5.30;1.77;;;;;;;24.54;44.86;96444.34;4983829;28;20038;-77
2021/09/24 11:03:32;;;;;;;3.17;1.73;;;;;;;22.76;47.20;96450.22;4972819;28;20483;-77
2021/09/24 11:06:09;;;;;;;2.97;1.23;;;;;;;22.55;48.24;96445.41;4982973;28;20038;-77
2021/09/24 11:11:07;;;;;;;3.40;1.95;;;;;;;22.94;47.98;96449.38;4968043;28;20085;-78
2021/09/24 11:13:41;;;;;;;3.30;1.80;;;;;;;24.58;45.21;96452.75;4960632;28;20027;-77
2021/09/24 11:16:14;;;;;;;6.50;2.97;;;;;;;23.83;46.04;96451.06;4970520;28;20035;-77
2021/09/24 11:18:56;;;;;;;;;;;;;;;23.61;46.25;96448.13;4979671;28;20038;-76
2021/09/24 11:21:30;;;;;;;6.78;3.28;;;;;;;23.25;46.29;96442.81;4977136;28;19925;-77
2021/09/24 11:23:57;;;;;;;6.35;2.60;;;;;;;23.01;46.83;96444.69;4971797;28;20105;-77
2021/09/24 11:26:31;;;;;;;4.80;3.00;;;;;;;21.94;49.19;96455.31;4975511;28;20050;-77
2021/09/24 11:29:10;;;;;;;4.30;2.70;;;;;;;21.91;50.57;96444.22;4975454;28;20033;-77
2021/09/24 11:32:03;;;;;;;9.93;6.15;;;;;;;22.85;50.47;96440.00;4970536;28;20142;-77
2021/09/24 11:34:49;;;;;;;10.07;7.43;;;;;;;23.80;47.58;96432.72;4959540;28;20134;-78